createdAt,value
2022-10-22T00:00:08.533Z,4
2022-10-22T00:01:08.498Z,4
2022-10-22T00:02:08.497Z,4
2022-10-22T00:03:08.645Z,4
2022-10-22T00:04:08.514Z,4
2022-10-22T00:05:08.535Z,4
2022-10-22T00:06:08.498Z,4
2022-10-22T00:07:08.501Z,4
2022-10-22T00:08:08.502Z,4
2022-10-22T00:09:08.637Z,4
2022-10-22T00:10:08.500Z,4
2022-10-22T00:11:08.502Z,4
2022-10-22T00:12:08.502Z,4
2022-10-22T00:13:08.517Z,4
2022-10-22T00:14:08.504Z,4
2022-10-22T00:15:08.492Z,4
2022-10-22T00:16:08.514Z,4
2022-10-22T00:17:11.542Z,4
2022-10-22T00:18:08.613Z,4
2022-10-22T00:19:08.495Z,4
2022-10-22T00:20:08.555Z,4
2022-10-22T00:21:08.502Z,4
2022-10-22T00:22:08.510Z,4
2022-10-22T00:23:08.548Z,4
2022-10-22T00:24:08.502Z,4
2022-10-22T00:25:08.504Z,4
2022-10-22T00:26:08.492Z,4
2022-10-22T00:27:08.497Z,4
2022-10-22T00:28:08.502Z,4
2022-10-22T00:29:08.508Z,4
2022-10-22T00:30:08.498Z,4
2022-10-22T00:31:08.504Z,4
2022-10-22T00:32:08.547Z,4
2022-10-22T00:33:08.548Z,4
2022-10-22T00:34:08.500Z,4
2022-10-22T00:35:08.492Z,4
2022-10-22T00:36:08.537Z,4
2022-10-22T00:37:08.533Z,4
2022-10-22T00:38:08.500Z,4
2022-10-22T00:39:08.541Z,4
2022-10-22T00:40:08.636Z,4
2022-10-22T00:41:08.521Z,4
2022-10-22T00:42:08.531Z,4
2022-10-22T00:43:08.509Z,4
2022-10-22T00:44:08.495Z,4
2022-10-22T00:45:08.527Z,4
2022-10-22T00:46:08.511Z,4
2022-10-22T00:47:08.509Z,4
2022-10-22T00:48:08.535Z,5
2022-10-22T00:49:08.518Z,4
2022-10-22T00:50:08.509Z,4
2022-10-22T00:51:08.538Z,4
2022-10-22T00:52:08.532Z,4
2022-10-22T00:53:08.509Z,4
2022-10-22T00:54:08.506Z,4
2022-10-22T00:55:08.545Z,5
2022-10-22T00:56:08.566Z,4
2022-10-22T00:57:08.516Z,4
2022-10-22T00:58:09.905Z,4
2022-10-22T01:00:08.515Z,4
2022-10-22T01:01:08.551Z,4
2022-10-22T01:02:08.506Z,4
2022-10-22T01:03:08.515Z,4
2022-10-22T01:04:08.513Z,4
2022-10-22T01:05:08.497Z,4
2022-10-22T01:06:08.511Z,5
2022-10-22T01:07:08.549Z,4
2022-10-22T01:08:08.620Z,5
2022-10-22T01:09:08.528Z,4
2022-10-22T01:10:08.518Z,4
2022-10-22T01:11:08.512Z,5
2022-10-22T01:12:08.517Z,5
2022-10-22T01:13:08.581Z,4
2022-10-22T01:14:08.518Z,4
2022-10-22T01:15:08.518Z,4
2022-10-22T01:16:08.505Z,4
2022-10-22T01:17:08.610Z,4
2022-10-22T01:18:08.520Z,4
2022-10-22T01:19:08.518Z,4
2022-10-22T01:20:08.500Z,5
2022-10-22T01:21:08.508Z,4
2022-10-22T01:22:08.541Z,5
2022-10-22T01:23:08.527Z,4
2022-10-22T01:24:08.502Z,4
2022-10-22T01:25:08.506Z,5
2022-10-22T01:26:08.513Z,5
2022-10-22T01:27:08.527Z,4
2022-10-22T01:28:08.517Z,4
2022-10-22T01:29:08.515Z,5
2022-10-22T01:30:08.511Z,4
2022-10-22T01:31:08.533Z,4
2022-10-22T01:32:08.502Z,5
2022-10-22T01:33:08.509Z,4
2022-10-22T01:34:08.525Z,4
2022-10-22T01:35:08.516Z,4
2022-10-22T01:36:08.514Z,4
2022-10-22T01:37:08.520Z,5
2022-10-22T01:38:08.537Z,5
2022-10-22T01:39:08.517Z,4
2022-10-22T01:40:08.505Z,4
2022-10-22T01:41:08.518Z,4
2022-10-22T01:42:08.505Z,5
2022-10-22T01:43:08.525Z,5
2022-10-22T01:45:08.524Z,5
2022-10-22T01:46:08.520Z,4
2022-10-22T01:47:08.516Z,5
2022-10-22T01:48:08.511Z,4
2022-10-22T01:49:08.538Z,4
2022-10-22T01:50:08.511Z,4
2022-10-22T01:51:08.513Z,4
2022-10-22T01:52:08.526Z,4
2022-10-22T01:53:08.516Z,4
2022-10-22T01:54:08.564Z,4
2022-10-22T01:55:08.531Z,5
2022-10-22T01:56:08.503Z,4
2022-10-22T01:57:08.519Z,3
2022-10-22T01:58:08.961Z,3
2022-10-22T01:59:08.503Z,4
2022-10-22T02:00:08.561Z,4
2022-10-22T02:01:08.562Z,4
2022-10-22T02:02:08.590Z,5
2022-10-22T02:04:08.520Z,4
2022-10-22T02:05:08.521Z,5
2022-10-22T02:06:08.525Z,4
2022-10-22T02:07:08.515Z,5
2022-10-22T02:08:08.527Z,5
2022-10-22T02:09:08.667Z,4
2022-10-22T02:10:08.519Z,5
2022-10-22T02:11:08.510Z,4
2022-10-22T02:12:08.559Z,4
2022-10-22T02:13:08.516Z,5
2022-10-22T02:14:08.531Z,4
2022-10-22T02:15:08.515Z,5
2022-10-22T02:16:08.513Z,5
2022-10-22T02:17:08.523Z,5
2022-10-22T02:18:08.519Z,4
2022-10-22T02:19:08.543Z,4
2022-10-22T02:20:08.523Z,4
2022-10-22T02:22:08.519Z,3
2022-10-22T02:23:08.528Z,4
2022-10-22T02:24:08.536Z,4
2022-10-22T02:25:08.538Z,4
2022-10-22T02:26:08.528Z,4
2022-10-22T02:27:08.526Z,4
2022-10-22T02:28:08.527Z,4
2022-10-22T02:29:08.520Z,5
2022-10-22T02:30:08.626Z,4
2022-10-22T02:31:08.562Z,5
2022-10-22T02:32:08.521Z,4
2022-10-22T02:33:08.532Z,4
2022-10-22T02:34:08.531Z,4
2022-10-22T02:35:08.523Z,4
2022-10-22T02:36:08.528Z,5
2022-10-22T02:37:08.534Z,5
2022-10-22T02:38:08.514Z,4
2022-10-22T02:39:08.595Z,5
2022-10-22T02:40:08.550Z,5
2022-10-22T02:41:08.519Z,5
2022-10-22T02:42:08.531Z,5
2022-10-22T02:43:08.535Z,5
2022-10-22T02:44:08.525Z,5
2022-10-22T02:45:08.532Z,5
2022-10-22T02:46:08.522Z,5
2022-10-22T02:47:08.528Z,5
2022-10-22T02:48:08.593Z,5
2022-10-22T02:49:08.517Z,4
2022-10-22T02:50:10.313Z,5
2022-10-22T02:51:08.549Z,5
2022-10-22T02:52:08.526Z,5
2022-10-22T02:53:08.525Z,5
2022-10-22T02:54:08.533Z,4
2022-10-22T02:55:08.531Z,4
2022-10-22T02:56:08.533Z,5
2022-10-22T02:57:08.626Z,5
2022-10-22T02:58:08.524Z,5
2022-10-22T02:59:08.534Z,4
2022-10-22T03:00:08.526Z,4
2022-10-22T03:01:10.360Z,5
2022-10-22T03:02:08.530Z,5
2022-10-22T03:03:08.516Z,5
2022-10-22T03:04:08.526Z,4
2022-10-22T03:05:08.533Z,5
2022-10-22T03:06:08.528Z,4
2022-10-22T03:07:08.521Z,5
2022-10-22T03:08:08.524Z,5
2022-10-22T03:09:08.611Z,4
2022-10-22T03:10:08.536Z,5
2022-10-22T03:11:08.554Z,4
2022-10-22T03:12:08.529Z,4
2022-10-22T03:13:08.530Z,4
2022-10-22T03:14:08.525Z,5
2022-10-22T03:15:08.537Z,4
2022-10-22T03:16:08.531Z,4
2022-10-22T03:17:08.537Z,4
2022-10-22T03:18:08.527Z,5
2022-10-22T03:19:08.514Z,5
2022-10-22T03:20:08.534Z,4
2022-10-22T03:21:08.522Z,5
2022-10-22T03:22:08.535Z,4
2022-10-22T03:23:08.540Z,4
2022-10-22T03:24:08.533Z,5
2022-10-22T03:25:08.527Z,5
2022-10-22T03:26:08.516Z,5
2022-10-22T03:27:08.539Z,5
2022-10-22T03:28:08.528Z,5
2022-10-22T03:29:08.537Z,5
2022-10-22T03:30:08.537Z,5
2022-10-22T03:31:08.546Z,5
2022-10-22T03:32:08.524Z,5
2022-10-22T03:33:08.534Z,5
2022-10-22T03:34:08.529Z,5
2022-10-22T03:35:08.538Z,5
2022-10-22T03:36:08.535Z,5
2022-10-22T03:37:08.538Z,5
2022-10-22T03:38:08.518Z,5
2022-10-22T03:39:08.544Z,5
2022-10-22T03:40:08.526Z,5
2022-10-22T03:41:08.571Z,5
2022-10-22T03:42:08.548Z,5
2022-10-22T03:43:08.534Z,5
2022-10-22T03:44:08.534Z,5
2022-10-22T03:45:08.528Z,5
2022-10-22T03:46:08.535Z,6
2022-10-22T03:47:08.542Z,5
2022-10-22T03:48:08.531Z,5
2022-10-22T03:49:08.700Z,5
2022-10-22T03:50:08.532Z,6
2022-10-22T03:51:08.534Z,5
2022-10-22T03:52:08.541Z,5
2022-10-22T03:53:08.529Z,6
2022-10-22T03:54:08.533Z,6
2022-10-22T03:55:08.541Z,6
2022-10-22T03:56:08.528Z,5
2022-10-22T03:57:08.546Z,6
2022-10-22T03:58:08.536Z,5
2022-10-22T03:59:08.528Z,5
2022-10-22T04:00:08.556Z,5
2022-10-22T04:01:08.628Z,5
2022-10-22T04:02:08.527Z,5
2022-10-22T04:03:08.539Z,5
2022-10-22T04:04:08.562Z,5
2022-10-22T04:05:08.628Z,5
2022-10-22T04:06:08.528Z,5
2022-10-22T04:07:08.541Z,6
2022-10-22T04:08:08.539Z,5
2022-10-22T04:09:08.620Z,5
2022-10-22T04:10:08.537Z,5
2022-10-22T04:11:08.540Z,5
2022-10-22T04:12:08.559Z,5
2022-10-22T04:13:08.568Z,5
2022-10-22T04:14:08.605Z,8
2022-10-22T04:15:08.546Z,11
2022-10-22T04:16:08.555Z,11
2022-10-22T04:17:08.586Z,10
2022-10-22T04:18:08.537Z,11
2022-10-22T04:19:08.562Z,8
2022-10-22T04:20:08.544Z,8
2022-10-22T04:21:08.532Z,7
2022-10-22T04:22:08.529Z,7
2022-10-22T04:23:08.553Z,7
2022-10-22T04:24:08.551Z,6
2022-10-22T04:25:08.545Z,6
2022-10-22T04:26:08.527Z,6
2022-10-22T04:27:08.529Z,6
2022-10-22T04:28:08.547Z,5
2022-10-22T04:29:11.876Z,5
2022-10-22T04:30:08.538Z,6
2022-10-22T04:31:08.540Z,5
2022-10-22T04:32:08.561Z,5
2022-10-22T04:33:08.541Z,6
2022-10-22T04:34:08.556Z,5
2022-10-22T04:35:08.551Z,6
2022-10-22T04:36:08.578Z,5
2022-10-22T04:37:08.543Z,5
2022-10-22T04:38:08.545Z,5
2022-10-22T04:39:08.554Z,5
2022-10-22T04:40:08.548Z,5
2022-10-22T04:41:08.553Z,5
2022-10-22T04:42:08.541Z,6
2022-10-22T04:43:08.538Z,5
2022-10-22T04:45:08.532Z,5
2022-10-22T04:46:08.564Z,6
2022-10-22T04:47:08.532Z,6
2022-10-22T04:48:08.545Z,6
2022-10-22T04:49:08.717Z,5
2022-10-22T04:50:08.552Z,6
2022-10-22T04:51:08.538Z,5
2022-10-22T04:52:08.552Z,6
2022-10-22T04:53:08.542Z,6
2022-10-22T04:54:08.546Z,5
2022-10-22T04:55:08.554Z,5
2022-10-22T04:56:08.545Z,5
2022-10-22T04:57:08.535Z,5
2022-10-22T04:58:08.545Z,6
2022-10-22T04:59:08.538Z,5
2022-10-22T05:00:08.566Z,6
2022-10-22T05:01:08.617Z,6
2022-10-22T05:02:08.550Z,6
2022-10-22T05:03:08.621Z,5
2022-10-22T05:04:08.565Z,5
2022-10-22T05:05:08.542Z,5
2022-10-22T05:06:08.656Z,6
2022-10-22T05:07:08.534Z,5
2022-10-22T05:08:08.541Z,5
2022-10-22T05:09:08.764Z,5
2022-10-22T05:10:08.545Z,5
2022-10-22T05:11:08.545Z,6
2022-10-22T05:12:08.551Z,5
2022-10-22T05:13:08.553Z,5
2022-10-22T05:14:08.545Z,5
2022-10-22T05:15:08.559Z,6
2022-10-22T05:16:08.545Z,5
2022-10-22T05:17:08.572Z,6
2022-10-22T05:18:08.543Z,5
2022-10-22T05:19:08.559Z,5
2022-10-22T05:20:08.558Z,6
2022-10-22T05:21:08.541Z,6
2022-10-22T05:22:08.564Z,6
2022-10-22T05:23:08.541Z,6
2022-10-22T05:24:08.556Z,5
2022-10-22T05:25:08.619Z,6
2022-10-22T05:26:08.535Z,5
2022-10-22T05:27:08.614Z,5
2022-10-22T05:28:08.555Z,5
2022-10-22T05:29:08.598Z,5
2022-10-22T05:30:08.562Z,6
2022-10-22T05:31:08.587Z,5
2022-10-22T05:32:08.545Z,5
2022-10-22T05:33:08.547Z,5
2022-10-22T05:34:08.571Z,5
2022-10-22T05:35:08.548Z,5
2022-10-22T05:36:08.541Z,6
2022-10-22T05:37:08.557Z,5
2022-10-22T05:38:08.555Z,6
2022-10-22T05:39:08.543Z,5
2022-10-22T05:40:19.208Z,5
2022-10-22T05:41:08.560Z,5
2022-10-22T05:42:08.543Z,6
2022-10-22T05:43:08.565Z,6
2022-10-22T05:44:08.543Z,5
2022-10-22T05:45:08.559Z,5
2022-10-22T05:46:08.548Z,6
2022-10-22T05:47:08.606Z,6
2022-10-22T05:48:08.552Z,5
2022-10-22T05:49:08.575Z,6
2022-10-22T05:50:08.542Z,5
2022-10-22T05:51:08.559Z,6
2022-10-22T05:52:08.563Z,5
2022-10-22T05:53:08.547Z,5
2022-10-22T05:54:08.554Z,6
2022-10-22T05:55:08.552Z,5
2022-10-22T05:56:08.544Z,6
2022-10-22T05:57:08.556Z,5
2022-10-22T05:58:08.566Z,5
2022-10-22T05:59:08.574Z,5
2022-10-22T06:00:11.652Z,5
2022-10-22T06:01:08.548Z,5
2022-10-22T06:02:08.698Z,6
2022-10-22T06:03:08.565Z,5
2022-10-22T06:04:08.578Z,5
2022-10-22T06:05:08.557Z,5
2022-10-22T06:06:08.555Z,5
2022-10-22T06:07:08.559Z,5
2022-10-22T06:08:08.559Z,5
2022-10-22T06:09:08.622Z,5
2022-10-22T06:10:08.556Z,5
2022-10-22T06:11:08.567Z,5
2022-10-22T06:12:08.567Z,5
2022-10-22T06:13:08.550Z,5
2022-10-22T06:14:08.545Z,5
2022-10-22T06:15:08.557Z,5
2022-10-22T06:16:08.614Z,5
2022-10-22T06:17:08.554Z,5
2022-10-22T06:18:08.597Z,5
2022-10-22T06:19:08.587Z,5
2022-10-22T06:20:08.564Z,5
2022-10-22T06:21:08.545Z,5
2022-10-22T06:22:08.550Z,3
2022-10-22T06:23:08.621Z,5
2022-10-22T06:24:08.545Z,5
2022-10-22T06:25:08.562Z,5
2022-10-22T06:26:08.568Z,5
2022-10-22T06:27:08.583Z,5
2022-10-22T06:28:08.576Z,5
2022-10-22T06:29:08.606Z,5
2022-10-22T06:30:08.613Z,5
2022-10-22T06:31:08.566Z,5
2022-10-22T06:32:08.564Z,5
2022-10-22T06:33:08.584Z,5
2022-10-22T06:34:08.597Z,5
2022-10-22T06:35:08.606Z,5
2022-10-22T06:36:08.546Z,5
2022-10-22T06:37:08.565Z,5
2022-10-22T06:38:08.572Z,5
2022-10-22T06:39:08.642Z,5
2022-10-22T06:40:08.684Z,5
2022-10-22T06:41:08.795Z,5
2022-10-22T06:42:08.805Z,5
2022-10-22T06:43:08.555Z,5
2022-10-22T06:44:08.559Z,5
2022-10-22T06:45:08.610Z,5
2022-10-22T06:46:08.558Z,5
2022-10-22T06:47:08.559Z,5
2022-10-22T06:48:08.569Z,5
2022-10-22T06:49:08.597Z,5
2022-10-22T06:50:08.567Z,4
2022-10-22T06:51:08.574Z,4
2022-10-22T06:52:08.580Z,4
2022-10-22T06:53:08.601Z,4
2022-10-22T06:54:08.566Z,4
2022-10-22T06:55:08.571Z,4
2022-10-22T06:56:08.562Z,4
2022-10-22T06:57:08.609Z,4
2022-10-22T06:58:08.616Z,5
2022-10-22T06:59:08.577Z,5
2022-10-22T07:00:08.559Z,4
2022-10-22T07:01:08.591Z,4
2022-10-22T07:02:08.802Z,4
2022-10-22T07:03:08.578Z,4
2022-10-22T07:04:08.593Z,4
2022-10-22T07:05:08.567Z,4
2022-10-22T07:06:08.564Z,4
2022-10-22T07:07:08.575Z,4
2022-10-22T07:08:08.568Z,4
2022-10-22T07:09:08.729Z,4
2022-10-22T07:10:08.557Z,4
2022-10-22T07:11:08.556Z,4
2022-10-22T07:12:08.573Z,5
2022-10-22T07:13:08.576Z,5
2022-10-22T07:14:08.578Z,5
2022-10-22T07:15:08.567Z,5
2022-10-22T07:16:08.565Z,4
2022-10-22T07:17:08.584Z,5
2022-10-22T07:18:08.571Z,5
2022-10-22T07:19:08.672Z,5
2022-10-22T07:20:08.582Z,5
2022-10-22T07:21:08.574Z,5
2022-10-22T07:22:08.568Z,5
2022-10-22T07:23:08.565Z,5
2022-10-22T07:24:08.609Z,4
2022-10-22T07:25:08.583Z,4
2022-10-22T07:26:08.590Z,5
2022-10-22T07:27:11.051Z,5
2022-10-22T07:28:08.560Z,5
2022-10-22T07:29:08.572Z,5
2022-10-22T07:30:08.584Z,5
2022-10-22T07:31:08.570Z,4
2022-10-22T07:32:08.567Z,5
2022-10-22T07:33:08.586Z,4
2022-10-22T07:34:08.736Z,4
2022-10-22T07:35:08.586Z,5
2022-10-22T07:36:08.571Z,5
2022-10-22T07:37:08.589Z,5
2022-10-22T07:38:08.572Z,5
2022-10-22T07:39:08.600Z,5
2022-10-22T07:40:08.578Z,4
2022-10-22T07:41:08.566Z,4
2022-10-22T07:42:08.589Z,5
2022-10-22T07:43:08.577Z,4
2022-10-22T07:44:08.643Z,5
2022-10-22T07:45:08.577Z,4
2022-10-22T07:46:08.575Z,4
2022-10-22T07:47:08.557Z,5
2022-10-22T07:48:08.587Z,4
2022-10-22T07:49:08.661Z,4
2022-10-22T07:50:08.567Z,4
2022-10-22T07:51:08.576Z,4
2022-10-22T07:52:08.577Z,4
2022-10-22T07:53:08.572Z,5
2022-10-22T07:54:08.567Z,5
2022-10-22T07:55:08.605Z,4
2022-10-22T07:56:08.575Z,5
2022-10-22T07:57:08.582Z,5
2022-10-22T07:58:08.582Z,4
2022-10-22T07:59:08.568Z,5
2022-10-22T08:00:08.574Z,5
2022-10-22T08:01:08.682Z,5
2022-10-22T08:02:08.578Z,5
2022-10-22T08:03:08.568Z,5
2022-10-22T08:04:08.586Z,5
2022-10-22T08:05:08.568Z,5
2022-10-22T08:06:08.607Z,4
2022-10-22T08:07:08.574Z,4
2022-10-22T08:08:08.566Z,4
2022-10-22T08:09:08.651Z,5
2022-10-22T08:10:08.592Z,4
2022-10-22T08:11:08.661Z,4
2022-10-22T08:12:08.581Z,4
2022-10-22T08:13:08.563Z,4
2022-10-22T08:14:08.577Z,4
2022-10-22T08:15:08.576Z,4
2022-10-22T08:16:08.572Z,4
2022-10-22T08:17:08.563Z,4
2022-10-22T08:18:08.630Z,4
2022-10-22T08:19:08.603Z,4
2022-10-22T08:20:08.572Z,4
2022-10-22T08:21:08.718Z,3
2022-10-22T08:22:08.571Z,4
2022-10-22T08:23:08.620Z,3
2022-10-22T08:24:08.574Z,4
2022-10-22T08:25:08.565Z,4
2022-10-22T08:26:08.582Z,4
2022-10-22T08:27:08.574Z,3
2022-10-22T08:28:08.595Z,4
2022-10-22T08:29:08.558Z,4
2022-10-22T08:30:08.583Z,3
2022-10-22T08:31:08.696Z,3
2022-10-22T08:32:08.606Z,3
2022-10-22T08:33:08.585Z,3
2022-10-22T08:34:08.593Z,3
2022-10-22T08:35:08.581Z,3
2022-10-22T08:36:08.587Z,4
2022-10-22T08:37:08.715Z,3
2022-10-22T08:38:08.581Z,3
2022-10-22T08:39:08.586Z,3
2022-10-22T08:40:08.630Z,3
2022-10-22T08:41:08.584Z,4
2022-10-22T08:42:08.576Z,3
2022-10-22T08:43:08.585Z,3
2022-10-22T08:44:08.588Z,3
2022-10-22T08:45:08.582Z,3
2022-10-22T08:46:08.573Z,3
2022-10-22T08:47:08.586Z,3
2022-10-22T08:48:08.583Z,3
2022-10-22T08:51:08.584Z,3
2022-10-22T08:52:08.585Z,3
2022-10-22T08:53:08.589Z,3
2022-10-22T08:54:08.582Z,3
2022-10-22T08:55:08.587Z,2
2022-10-22T08:56:08.578Z,3
2022-10-22T08:57:08.583Z,2
2022-10-22T08:58:08.574Z,3
2022-10-22T08:59:08.585Z,3
2022-10-22T09:00:08.906Z,3
2022-10-22T09:01:08.600Z,3
2022-10-22T09:02:08.580Z,3
2022-10-22T09:03:08.576Z,3
2022-10-22T09:04:08.633Z,3
2022-10-22T09:05:11.586Z,2
2022-10-22T09:06:08.660Z,3
2022-10-22T09:07:08.866Z,3
2022-10-22T09:08:08.862Z,3
2022-10-22T09:09:08.727Z,3
2022-10-22T09:10:08.698Z,3
2022-10-22T09:11:08.606Z,3
2022-10-22T09:12:08.591Z,3
2022-10-22T09:13:08.596Z,2
2022-10-22T09:14:08.646Z,3
2022-10-22T09:15:08.597Z,2
2022-10-22T09:16:08.590Z,2
2022-10-22T09:17:08.574Z,2
2022-10-22T09:18:08.587Z,3
2022-10-22T09:19:08.603Z,3
2022-10-22T09:20:08.601Z,3
2022-10-22T09:21:08.589Z,2
2022-10-22T09:22:08.592Z,3
2022-10-22T09:23:08.594Z,3
2022-10-22T09:24:08.582Z,2
2022-10-22T09:25:08.600Z,3
2022-10-22T09:26:08.588Z,3
2022-10-22T09:27:08.578Z,2
2022-10-22T09:28:08.590Z,3
2022-10-22T09:29:08.598Z,2
2022-10-22T09:30:08.585Z,2
2022-10-22T09:31:08.589Z,3
2022-10-22T09:32:08.594Z,3
2022-10-22T09:33:08.594Z,2
2022-10-22T09:34:08.585Z,2
2022-10-22T09:35:08.578Z,3
2022-10-22T09:36:08.586Z,3
2022-10-22T09:37:08.590Z,3
2022-10-22T09:38:08.581Z,3
2022-10-22T09:39:08.711Z,3
2022-10-22T09:40:08.590Z,2
2022-10-22T09:41:08.588Z,2
2022-10-22T09:42:08.585Z,3
2022-10-22T09:43:08.571Z,3
2022-10-22T09:44:08.609Z,2
2022-10-22T09:45:08.580Z,2
2022-10-22T09:46:08.624Z,2
2022-10-22T09:47:08.702Z,2
2022-10-22T09:48:08.605Z,2
2022-10-22T09:49:08.656Z,2
2022-10-22T09:50:08.597Z,2
2022-10-22T09:51:08.590Z,2
2022-10-22T09:52:08.614Z,2
2022-10-22T09:53:08.589Z,2
2022-10-22T09:54:08.596Z,2
2022-10-22T09:55:08.613Z,2
2022-10-22T09:56:08.600Z,2
2022-10-22T09:57:08.591Z,2
2022-10-22T09:58:08.590Z,2
2022-10-22T09:59:08.584Z,2
2022-10-22T10:00:08.603Z,2
2022-10-22T10:01:08.612Z,2
2022-10-22T10:02:19.647Z,2
2022-10-22T10:03:08.624Z,2
2022-10-22T10:04:10.038Z,2
2022-10-22T10:05:08.605Z,2
2022-10-22T10:06:08.611Z,2
2022-10-22T10:07:08.586Z,2
2022-10-22T10:08:08.596Z,2
2022-10-22T10:09:09.005Z,2
2022-10-22T10:10:08.601Z,2
2022-10-22T10:11:08.590Z,2
2022-10-22T10:12:08.605Z,3
2022-10-22T10:13:08.588Z,3
2022-10-22T10:14:08.616Z,2
2022-10-22T10:15:08.601Z,3
2022-10-22T10:16:08.595Z,3
2022-10-22T10:17:08.603Z,4
2022-10-22T10:18:08.600Z,3
2022-10-22T10:19:08.596Z,4
2022-10-22T10:20:08.597Z,4
2022-10-22T10:21:08.707Z,4
2022-10-22T10:22:08.606Z,4
2022-10-22T10:23:08.650Z,3
2022-10-22T10:24:08.603Z,3
2022-10-22T10:25:08.605Z,3
2022-10-22T10:26:08.615Z,3
2022-10-22T10:27:08.605Z,3
2022-10-22T10:28:08.606Z,3
2022-10-22T10:29:08.599Z,3
2022-10-22T10:30:08.610Z,3
2022-10-22T10:31:08.614Z,3
2022-10-22T10:32:08.605Z,3
2022-10-22T10:33:08.589Z,3
2022-10-22T10:34:08.598Z,3
2022-10-22T10:35:08.604Z,2
2022-10-22T10:36:08.597Z,2
2022-10-22T10:37:08.597Z,2
2022-10-22T10:38:08.610Z,2
2022-10-22T10:39:08.591Z,2
2022-10-22T10:40:08.594Z,2
2022-10-22T10:41:08.598Z,3
2022-10-22T10:42:08.610Z,3
2022-10-22T10:43:08.612Z,2
2022-10-22T10:44:08.607Z,2
2022-10-22T10:45:08.606Z,2
2022-10-22T10:46:08.653Z,2
2022-10-22T10:47:08.593Z,2
2022-10-22T10:48:08.608Z,2
2022-10-22T10:49:08.601Z,2
2022-10-22T10:50:08.617Z,2
2022-10-22T10:51:08.606Z,2
2022-10-22T10:52:08.621Z,2
2022-10-22T10:53:08.597Z,1
2022-10-22T10:54:08.607Z,2
2022-10-22T10:55:08.599Z,2
2022-10-22T10:56:08.602Z,2
2022-10-22T10:57:08.687Z,1
2022-10-22T10:58:08.612Z,2
2022-10-22T10:59:08.611Z,1
2022-10-22T11:00:08.596Z,2
2022-10-22T11:01:08.641Z,2
2022-10-22T11:02:08.719Z,2
2022-10-22T11:03:08.606Z,2
2022-10-22T11:04:08.609Z,2
2022-10-22T11:05:08.606Z,2
2022-10-22T11:06:08.601Z,2
2022-10-22T11:07:11.409Z,2
2022-10-22T11:08:08.597Z,2
2022-10-22T11:09:14.997Z,2
2022-10-22T11:10:08.621Z,2
2022-10-22T11:11:08.695Z,1
2022-10-22T11:12:08.623Z,1
2022-10-22T11:13:08.614Z,1
2022-10-22T11:14:08.662Z,1
2022-10-22T11:15:08.613Z,1
2022-10-22T11:16:08.600Z,1
2022-10-22T11:17:08.605Z,1
2022-10-22T11:18:08.624Z,1
2022-10-22T11:19:08.609Z,1
2022-10-22T11:20:08.624Z,1
2022-10-22T11:21:08.624Z,1
2022-10-22T11:22:08.602Z,2
2022-10-22T11:23:24.356Z,1
2022-10-22T11:24:08.609Z,1
2022-10-22T11:25:08.621Z,2
2022-10-22T11:26:08.612Z,1
2022-10-22T11:27:08.597Z,1
2022-10-22T11:28:11.314Z,2
2022-10-22T11:29:08.607Z,2
2022-10-22T11:30:08.606Z,2
2022-10-22T11:31:08.636Z,2
2022-10-22T11:32:08.614Z,3
2022-10-22T11:33:08.607Z,2
2022-10-22T11:34:32.133Z,1
2022-10-22T11:35:08.618Z,2
2022-10-22T11:36:08.610Z,1
2022-10-22T11:37:08.605Z,2
2022-10-22T11:38:08.622Z,3
2022-10-22T11:39:08.624Z,3
2022-10-22T11:40:08.701Z,2
2022-10-22T11:41:08.629Z,3
2022-10-22T11:42:08.616Z,3
2022-10-22T11:43:08.617Z,2
2022-10-22T11:44:08.620Z,2
2022-10-22T11:45:08.605Z,2
2022-10-22T11:46:08.684Z,2
2022-10-22T11:47:08.620Z,2
2022-10-22T11:48:08.612Z,2
2022-10-22T11:49:08.615Z,2
2022-10-22T11:50:08.702Z,2
2022-10-22T11:51:08.629Z,2
2022-10-22T11:52:08.616Z,2
2022-10-22T11:53:08.702Z,2
2022-10-22T11:54:08.605Z,2
2022-10-22T11:55:08.617Z,1
2022-10-22T11:56:08.615Z,1
2022-10-22T11:57:08.678Z,1
2022-10-22T11:58:08.677Z,1
2022-10-22T11:59:08.616Z,1
2022-10-22T12:00:08.610Z,1
2022-10-22T12:01:08.621Z,1
2022-10-22T12:02:08.617Z,1
2022-10-22T12:03:08.663Z,2
2022-10-22T12:04:08.696Z,1
2022-10-22T12:05:08.630Z,2
2022-10-22T12:06:08.636Z,1
2022-10-22T12:07:08.627Z,1
2022-10-22T12:08:12.251Z,1
2022-10-22T12:10:08.677Z,1
2022-10-22T12:11:08.637Z,2
2022-10-22T12:12:08.624Z,2
2022-10-22T12:13:08.611Z,1
2022-10-22T12:14:08.624Z,1
2022-10-22T12:15:08.654Z,2
2022-10-22T12:16:11.608Z,1
2022-10-22T12:17:08.619Z,2
2022-10-22T12:18:08.684Z,1
2022-10-22T12:19:08.632Z,1
2022-10-22T12:20:08.626Z,1
2022-10-22T12:21:08.644Z,1
2022-10-22T12:22:08.636Z,1
2022-10-22T12:23:08.617Z,1
2022-10-22T12:24:08.610Z,1
2022-10-22T12:25:08.632Z,2
2022-10-22T12:26:08.627Z,1
2022-10-22T12:27:09.270Z,1
2022-10-22T12:28:08.623Z,1
2022-10-22T12:29:08.638Z,1
2022-10-22T12:30:08.659Z,1
2022-10-22T12:31:08.625Z,2
2022-10-22T12:32:08.626Z,2
2022-10-22T12:33:08.626Z,2
2022-10-22T12:34:08.633Z,1
2022-10-22T12:35:08.643Z,1
2022-10-22T12:36:08.623Z,1
2022-10-22T12:37:08.626Z,1
2022-10-22T12:38:08.615Z,1
2022-10-22T12:39:08.631Z,1
2022-10-22T12:40:08.631Z,1
2022-10-22T12:41:08.633Z,1
2022-10-22T12:42:08.631Z,1
2022-10-22T12:44:08.672Z,1
2022-10-22T12:45:08.625Z,1
2022-10-22T12:46:08.659Z,1
2022-10-22T12:47:08.649Z,1
2022-10-22T12:48:08.644Z,1
2022-10-22T12:49:08.635Z,1
2022-10-22T12:50:08.639Z,1
2022-10-22T12:51:08.641Z,1
2022-10-22T12:52:10.942Z,2
2022-10-22T12:53:08.619Z,2
2022-10-22T12:54:08.654Z,1
2022-10-22T12:55:08.629Z,1
2022-10-22T12:56:08.627Z,1
2022-10-22T12:57:08.651Z,1
2022-10-22T12:58:08.682Z,1
2022-10-22T12:59:08.644Z,1
2022-10-22T13:00:08.632Z,1
2022-10-22T13:01:08.727Z,1
2022-10-22T13:02:10.514Z,1
2022-10-22T13:03:08.632Z,1
2022-10-22T13:04:08.643Z,1
2022-10-22T13:05:08.634Z,1
2022-10-22T13:06:08.634Z,1
2022-10-22T13:07:08.644Z,1
2022-10-22T13:08:08.636Z,1
2022-10-22T13:09:08.716Z,1
2022-10-22T13:10:08.641Z,1
2022-10-22T13:11:08.635Z,1
2022-10-22T13:12:08.646Z,1
2022-10-22T13:13:08.718Z,1
2022-10-22T13:14:08.642Z,1
2022-10-22T13:15:08.652Z,1
2022-10-22T13:16:08.638Z,1
2022-10-22T13:17:08.674Z,1
2022-10-22T13:18:08.642Z,1
2022-10-22T13:19:08.631Z,1
2022-10-22T13:20:08.646Z,1
2022-10-22T13:21:08.641Z,1
2022-10-22T13:22:08.645Z,1
2022-10-22T13:23:08.648Z,1
2022-10-22T13:24:08.641Z,1
2022-10-22T13:25:08.637Z,1
2022-10-22T13:26:08.645Z,1
2022-10-22T13:27:08.646Z,1
2022-10-22T13:28:08.644Z,1
2022-10-22T13:29:08.641Z,1
2022-10-22T13:30:08.642Z,1
2022-10-22T13:31:08.639Z,1
2022-10-22T13:32:08.643Z,1
2022-10-22T13:33:08.683Z,1
2022-10-22T13:34:10.884Z,1
2022-10-22T13:35:08.702Z,1
2022-10-22T13:36:08.640Z,1
2022-10-22T13:37:08.652Z,1
2022-10-22T13:38:08.649Z,1
2022-10-22T13:39:08.656Z,1
2022-10-22T13:40:11.027Z,1
2022-10-22T13:41:08.646Z,1
2022-10-22T13:42:08.658Z,1
2022-10-22T13:43:08.634Z,1
2022-10-22T13:44:08.651Z,1
2022-10-22T13:45:08.650Z,1
2022-10-22T13:46:08.661Z,1
2022-10-22T13:47:08.718Z,1
2022-10-22T13:48:08.678Z,1
2022-10-22T13:49:08.638Z,1
2022-10-22T13:50:08.638Z,1
2022-10-22T13:51:08.677Z,1
2022-10-22T13:52:08.658Z,1
2022-10-22T13:53:08.642Z,1
2022-10-22T13:54:08.647Z,1
2022-10-22T13:55:08.687Z,1
2022-10-22T13:56:08.658Z,1
2022-10-22T13:57:08.653Z,2
2022-10-22T13:58:08.710Z,2
2022-10-22T13:59:08.638Z,1
2022-10-22T14:00:08.649Z,1
2022-10-22T14:01:08.722Z,1
2022-10-22T14:02:08.660Z,1
2022-10-22T14:03:08.646Z,1
2022-10-22T14:04:08.660Z,1
2022-10-22T14:05:08.655Z,1
2022-10-22T14:06:08.652Z,1
2022-10-22T14:07:08.659Z,1
2022-10-22T14:08:08.684Z,1
2022-10-22T14:09:08.808Z,1
2022-10-22T14:10:08.651Z,1
2022-10-22T14:11:08.655Z,1
2022-10-22T14:12:08.642Z,1
2022-10-22T14:13:08.677Z,1
2022-10-22T14:14:08.691Z,1
2022-10-22T14:15:08.648Z,1
2022-10-22T14:16:08.649Z,1
2022-10-22T14:17:08.657Z,1
2022-10-22T14:18:08.647Z,1
2022-10-22T14:19:08.730Z,1
2022-10-22T14:20:08.677Z,1
2022-10-22T14:21:08.660Z,1
2022-10-22T14:22:08.661Z,1
2022-10-22T14:23:08.713Z,1
2022-10-22T14:24:10.821Z,1
2022-10-22T14:25:08.673Z,1
2022-10-22T14:26:08.660Z,1
2022-10-22T14:27:08.666Z,2
2022-10-22T14:28:08.665Z,2
2022-10-22T14:29:10.188Z,2
2022-10-22T14:30:08.648Z,2
2022-10-22T14:31:08.683Z,2
2022-10-22T14:32:08.669Z,2
2022-10-22T14:33:08.663Z,2
2022-10-22T14:34:08.646Z,1
2022-10-22T14:35:08.693Z,2
2022-10-22T14:36:08.714Z,1
2022-10-22T14:37:08.659Z,1
2022-10-22T14:38:08.656Z,1
2022-10-22T14:39:08.676Z,1
2022-10-22T14:40:08.668Z,1
2022-10-22T14:41:08.672Z,1
2022-10-22T14:42:08.669Z,1
2022-10-22T14:43:08.666Z,1
2022-10-22T14:44:08.660Z,1
2022-10-22T14:45:08.661Z,1
2022-10-22T14:46:08.701Z,1
2022-10-22T14:47:08.663Z,1
2022-10-22T14:48:08.710Z,1
2022-10-22T14:49:08.678Z,1
2022-10-22T14:50:08.675Z,1
2022-10-22T14:51:08.660Z,1
2022-10-22T14:52:10.636Z,1
2022-10-22T14:53:08.674Z,1
2022-10-22T14:54:08.680Z,1
2022-10-22T14:55:08.669Z,1
2022-10-22T14:56:08.670Z,1